Time;durP1;ratioP1;P1;durP2;ratioP2;P2;SDS_P1;SDS_P2;PMS_P1;PMS_P2;Temp;Humidity;BMP_temperature;BMP_pressure;BME280_temperature;BME280_humidity;BME280_pressure;Samples;Min_cycle;Max_cycle;Signal;HPM_P1;HPM_P2
2023/07/12 00:00:59;;;;;;;0.00;0.00;;;19.90;99.90;;;;;;5151929;27;20509;-68
2023/07/12 00:03:25;;;;;;;0.00;0.00;;;19.90;99.90;;;;;;5143896;27;20505;-68
2023/07/12 00:05:52;;;;;;;0.35;0.35;;;19.80;99.90;;;;;;5152093;27;20060;-68
2023/07/12 00:08:26;;;;;;;0.00;0.00;;;19.80;99.90;;;;;;5151139;27;20042;-68
2023/07/12 00:10:54;;;;;;;0.03;0.03;;;19.80;99.90;;;;;;5143050;27;20052;-68
2023/07/12 00:13:21;;;;;;;0.00;0.00;;;19.70;99.90;;;;;;5141237;27;20073;-68
2023/07/12 00:15:48;;;;;;;0.65;0.63;;;19.80;99.90;;;;;;5139149;27;20038;-68
2023/07/12 00:18:16;;;;;;;0.20;0.20;;;19.80;99.90;;;;;;5149974;27;20042;-68
2023/07/12 00:20:43;;;;;;;0.10;0.10;;;19.70;99.90;;;;;;5121582;27;20042;-68
2023/07/12 00:23:16;;;;;;;0.00;0.00;;;19.70;99.90;;;;;;5132911;27;20053;-68
2023/07/12 00:25:43;;;;;;;0.00;0.00;;;19.80;99.90;;;;;;5144159;27;20050;-68
2023/07/12 00:28:27;;;;;;;0.00;0.00;;;19.60;99.90;;;;;;5151313;27;20106;-68
2023/07/12 00:30:55;;;;;;;0.00;0.00;;;19.70;99.90;;;;;;5150121;27;20050;-68
2023/07/12 00:33:22;;;;;;;0.00;0.00;;;19.70;99.90;;;;;;5145265;27;20051;-68
2023/07/12 00:35:48;;;;;;;0.00;0.00;;;19.70;99.90;;;;;;5152768;27;20122;-68
2023/07/12 00:38:18;;;;;;;0.13;0.13;;;19.70;99.90;;;;;;5145868;27;20047;-68
2023/07/12 00:40:53;;;;;;;0.00;0.00;;;19.70;99.90;;;;;;5150430;27;20378;-68
2023/07/12 00:43:37;;;;;;;2.72;0.20;;;19.70;99.90;;;;;;5144478;27;20030;-68
2023/07/12 00:46:16;;;;;;;0.00;0.00;;;19.60;99.90;;;;;;5150868;27;21043;-68
2023/07/12 00:48:44;;;;;;;0.00;0.00;;;19.60;99.90;;;;;;5141333;27;20943;-68
2023/07/12 00:51:41;;;;;;;0.00;0.00;;;19.60;99.90;;;;;;5144949;27;20055;-68
2023/07/12 00:54:12;;;;;;;0.00;0.00;;;19.60;99.90;;;;;;5142016;27;20097;-68
2023/07/12 00:56:38;;;;;;;0.00;0.00;;;19.50;99.90;;;;;;5123317;27;20074;-68
2023/07/12 00:59:11;;;;;;;0.00;0.00;;;19.50;99.90;;;;;;5148736;27;20111;-68
2023/07/12 01:01:37;;;;;;;0.00;0.00;;;19.50;99.90;;;;;;5152148;27;20537;-68
2023/07/12 01:04:04;;;;;;;0.00;0.00;;;19.50;99.90;;;;;;5141971;27;20134;-68
2023/07/12 01:06:30;;;;;;;0.25;0.20;;;19.40;99.90;;;;;;5147329;27;20078;-68
2023/07/12 01:09:01;;;;;;;0.00;0.00;;;19.40;99.90;;;;;;5151120;27;20073;-68
2023/07/12 01:11:28;;;;;;;0.00;0.00;;;19.40;99.90;;;;;;5148025;27;20410;-67
2023/07/12 01:13:54;;;;;;;0.40;0.40;;;19.40;99.90;;;;;;5140304;27;20047;-68
2023/07/12 01:16:22;;;;;;;0.13;0.13;;;19.40;99.90;;;;;;5133352;27;20397;-68
2023/07/12 01:18:48;;;;;;;0.00;0.00;;;19.40;99.90;;;;;;5123337;27;20055;-68
2023/07/12 01:21:20;;;;;;;0.28;0.20;;;19.40;99.90;;;;;;5147257;27;20453;-68
2023/07/12 01:23:46;;;;;;;0.00;0.00;;;19.40;99.90;;;;;;5147050;27;20403;-68
2023/07/12 01:26:20;;;;;;;0.00;0.00;;;19.40;99.90;;;;;;5147743;27;20367;-68
2023/07/12 01:28:49;;;;;;;0.00;0.00;;;19.30;99.90;;;;;;5129225;27;20042;-68
2023/07/12 01:31:15;;;;;;;0.00;0.00;;;19.40;99.90;;;;;;5145461;27;20047;-68
2023/07/12 01:33:41;;;;;;;0.70;0.40;;;19.40;99.90;;;;;;5142973;27;20086;-68
2023/07/12 01:36:07;;;;;;;9.52;0.17;;;19.30;99.90;;;;;;5144166;27;20834;-68
2023/07/12 01:38:32;;;;;;;2.63;1.08;;;19.30;99.90;;;;;;5146988;27;20042;-67
2023/07/12 01:40:58;;;;;;;0.00;0.00;;;19.20;99.90;;;;;;5144268;27;20123;-68
2023/07/12 01:43:23;;;;;;;0.00;0.00;;;19.20;99.90;;;;;;5150689;27;20037;-68
2023/07/12 01:45:49;;;;;;;0.00;0.00;;;19.20;99.90;;;;;;5149121;27;20101;-68
2023/07/12 01:48:15;;;;;;;0.10;0.10;;;19.20;99.90;;;;;;5146780;27;20039;-67
2023/07/12 01:50:41;;;;;;;0.00;0.00;;;19.20;99.90;;;;;;5137999;27;20474;-68
2023/07/12 01:53:08;;;;;;;0.00;0.00;;;19.20;99.90;;;;;;5150272;27;20081;-68
2023/07/12 01:55:33;;;;;;;0.10;0.10;;;19.20;99.90;;;;;;5149579;27;20431;-68
2023/07/12 01:57:59;;;;;;;0.00;0.00;;;19.20;99.90;;;;;;5137491;27;20050;-67
2023/07/12 02:00:25;;;;;;;12.80;2.03;;;19.20;99.90;;;;;;5148710;27;20035;-68
2023/07/12 02:02:50;;;;;;;0.85;0.47;;;19.20;99.90;;;;;;5143302;27;20064;-68
2023/07/12 02:05:18;;;;;;;0.00;0.00;;;19.10;99.90;;;;;;5148381;27;20047;-67
2023/07/12 02:07:44;;;;;;;0.75;0.63;;;19.10;99.90;;;;;;5131511;27;20031;-68
2023/07/12 02:10:13;;;;;;;1.35;1.13;;;19.10;99.90;;;;;;5150598;27;20129;-68
2023/07/12 02:12:39;;;;;;;0.00;0.00;;;19.10;99.90;;;;;;5140236;27;20086;-68
2023/07/12 02:15:05;;;;;;;0.08;0.08;;;19.10;99.90;;;;;;5130446;27;20478;-67
2023/07/12 02:17:31;;;;;;;0.52;0.52;;;19.10;99.90;;;;;;5143425;27;20038;-68
2023/07/12 02:19:57;;;;;;;0.00;0.00;;;19.10;99.90;;;;;;5148076;27;20039;-67
2023/07/12 02:22:22;;;;;;;0.00;0.00;;;19.10;99.90;;;;;;5146581;27;20120;-68
2023/07/12 02:24:51;;;;;;;7.03;0.75;;;19.00;99.90;;;;;;5146104;27;20042;-68
2023/07/12 02:27:16;;;;;;;0.10;0.10;;;19.00;99.90;;;;;;5149500;27;20070;-68
2023/07/12 02:29:42;;;;;;;0.00;0.00;;;19.00;99.90;;;;;;5140441;27;20115;-68
2023/07/12 02:32:08;;;;;;;0.00;0.00;;;19.00;99.90;;;;;;5142107;27;20042;-68
2023/07/12 02:34:33;;;;;;;0.10;0.10;;;19.00;99.90;;;;;;5142816;27;20088;-68
2023/07/12 02:36:59;;;;;;;0.08;0.08;;;18.90;99.90;;;;;;5149345;27;20046;-67
2023/07/12 02:39:24;;;;;;;0.90;0.40;;;18.90;99.90;;;;;;5132635;27;20117;-68
2023/07/12 02:41:50;;;;;;;0.00;0.00;;;19.00;99.90;;;;;;5145116;27;20039;-67
2023/07/12 02:44:15;;;;;;;7.75;1.85;;;18.90;99.90;;;;;;5150463;27;20044;-68
2023/07/12 02:46:41;;;;;;;0.00;0.00;;;18.90;99.90;;;;;;5154747;27;20039;-67
2023/07/12 02:49:06;;;;;;;1.23;0.65;;;19.00;99.90;;;;;;5154185;27;20129;-67
2023/07/12 02:51:32;;;;;;;6.22;2.45;;;19.00;99.90;;;;;;5129840;27;20087;-68
2023/07/12 02:53:57;;;;;;;0.30;0.08;;;18.90;99.90;;;;;;5144411;27;20047;-68
2023/07/12 02:56:23;;;;;;;0.00;0.00;;;18.90;99.90;;;;;;5143273;27;20053;-67
2023/07/12 02:58:49;;;;;;;1.40;0.57;;;19.00;99.90;;;;;;5147451;27;20039;-68
2023/07/12 03:01:14;;;;;;;0.17;0.17;;;18.90;99.90;;;;;;5145875;27;20066;-68
2023/07/12 03:03:40;;;;;;;1.27;0.08;;;19.00;99.90;;;;;;5149949;27;20049;-68
2023/07/12 03:06:09;;;;;;;0.30;0.30;;;19.00;99.90;;;;;;5144972;27;20984;-68
2023/07/12 03:08:34;;;;;;;0.32;0.32;;;18.90;99.90;;;;;;5152520;27;20078;-67
2023/07/12 03:11:02;;;;;;;0.63;0.35;;;19.00;99.90;;;;;;5146149;27;20077;-68
2023/07/12 03:13:28;;;;;;;1.38;0.55;;;19.00;99.90;;;;;;5129015;27;20513;-68
2023/07/12 03:15:53;;;;;;;0.10;0.10;;;18.90;99.90;;;;;;5153840;27;20039;-68
2023/07/12 03:18:19;;;;;;;0.00;0.00;;;18.90;99.90;;;;;;5140775;27;20038;-68
2023/07/12 03:20:45;;;;;;;0.25;0.25;;;18.90;99.90;;;;;;5134078;27;20070;-68
2023/07/12 03:23:10;;;;;;;0.00;0.00;;;18.90;99.90;;;;;;5151612;27;20039;-68
2023/07/12 03:25:36;;;;;;;0.30;0.25;;;18.90;99.90;;;;;;5147459;27;20093;-68
2023/07/12 03:28:02;;;;;;;0.00;0.00;;;18.90;99.90;;;;;;5149545;27;20043;-68
2023/07/12 03:30:27;;;;;;;0.20;0.20;;;18.90;99.90;;;;;;5144307;27;20042;-68
2023/07/12 03:32:53;;;;;;;0.00;0.00;;;18.90;99.90;;;;;;5145243;27;20489;-68
2023/07/12 03:35:19;;;;;;;0.00;0.00;;;19.00;99.90;;;;;;5146025;27;20049;-67
2023/07/12 03:37:44;;;;;;;2.38;1.35;;;19.00;99.90;;;;;;5151220;27;20866;-67
2023/07/12 03:40:11;;;;;;;0.00;0.00;;;19.00;99.90;;;;;;5151969;27;20504;-67
2023/07/12 03:42:36;;;;;;;0.00;0.00;;;19.00;99.90;;;;;;5132921;27;20095;-68
2023/07/12 03:45:02;;;;;;;0.22;0.22;;;19.00;99.90;;;;;;5145987;27;20432;-68
2023/07/12 03:47:28;;;;;;;0.10;0.10;;;18.90;99.90;;;;;;5153791;27;20506;-67
2023/07/12 03:49:54;;;;;;;0.80;0.57;;;19.00;99.90;;;;;;5152761;27;20092;-67
2023/07/12 03:52:20;;;;;;;0.10;0.10;;;18.90;99.90;;;;;;5142866;27;20054;-66
2023/07/12 03:54:46;;;;;;;2.03;0.38;;;18.90;99.90;;;;;;5128593;27;20081;-66
2023/07/12 03:57:12;;;;;;;1.45;0.93;;;18.90;99.90;;;;;;5141200;27;20046;-66
2023/07/12 03:59:37;;;;;;;0.10;0.10;;;18.90;99.90;;;;;;5142476;27;20051;-66
2023/07/12 04:02:03;;;;;;;0.65;0.40;;;18.90;99.90;;;;;;5147094;27;20069;-66
2023/07/12 04:04:28;;;;;;;0.28;0.28;;;18.90;99.90;;;;;;5133539;27;20070;-67
2023/07/12 04:06:54;;;;;;;0.10;0.10;;;18.90;99.90;;;;;;5145385;27;20049;-67
2023/07/12 04:09:20;;;;;;;0.00;0.00;;;18.90;99.90;;;;;;5152325;27;20133;-67
2023/07/12 04:11:45;;;;;;;0.03;0.03;;;18.90;99.90;;;;;;5152073;27;20108;-67
2023/07/12 04:14:11;;;;;;;0.00;0.00;;;18.90;99.90;;;;;;5147356;27;20121;-67
2023/07/12 04:16:36;;;;;;;0.40;0.40;;;18.80;99.90;;;;;;5152740;27;20042;-67
2023/07/12 04:19:02;;;;;;;0.22;0.22;;;18.80;99.90;;;;;;5149918;27;20389;-67
2023/07/12 04:21:28;;;;;;;1.65;1.35;;;18.80;99.90;;;;;;5142027;27;20091;-66
2023/07/12 04:23:53;;;;;;;0.32;0.10;;;18.80;99.90;;;;;;5148177;27;20072;-67
2023/07/12 04:26:20;;;;;;;0.10;0.05;;;18.90;99.90;;;;;;5152048;27;20043;-67
2023/07/12 04:28:49;;;;;;;0.20;0.20;;;18.80;99.90;;;;;;5143242;27;20038;-66
2023/07/12 04:31:17;;;;;;;0.00;0.00;;;18.90;99.90;;;;;;5149937;27;20118;-67
2023/07/12 04:33:43;;;;;;;0.28;0.28;;;19.00;99.90;;;;;;5150867;27;20499;-67
2023/07/12 04:36:11;;;;;;;0.00;0.00;;;18.90;99.90;;;;;;5146721;27;20054;-67
2023/07/12 04:38:37;;;;;;;0.00;0.00;;;18.90;99.90;;;;;;5151012;27;20042;-67
2023/07/12 04:41:04;;;;;;;15.35;1.85;;;18.90;99.90;;;;;;5140422;27;20039;-67
2023/07/12 04:43:30;;;;;;;0.03;0.03;;;18.90;99.90;;;;;;5143516;27;20035;-67
2023/07/12 04:45:56;;;;;;;0.03;0.03;;;19.00;99.90;;;;;;5126493;27;20035;-67
2023/07/12 04:48:22;;;;;;;1.27;1.15;;;18.90;99.90;;;;;;5145663;27;20047;-67
2023/07/12 04:50:52;;;;;;;0.05;0.05;;;18.90;99.90;;;;;;5143247;27;20274;-68
2023/07/12 04:53:19;;;;;;;0.00;0.00;;;18.90;99.90;;;;;;5140529;27;20424;-67
2023/07/12 04:55:45;;;;;;;0.13;0.13;;;18.90;99.90;;;;;;5150032;27;20066;-67
2023/07/12 04:58:11;;;;;;;0.55;0.22;;;18.90;99.90;;;;;;5152798;27;20085;-67
2023/07/12 05:00:37;;;;;;;1.75;0.55;;;18.90;99.90;;;;;;5144346;27;20057;-67
2023/07/12 05:03:03;;;;;;;0.50;0.50;;;18.90;99.90;;;;;;5141315;27;20047;-67
2023/07/12 05:05:28;;;;;;;0.28;0.28;;;18.90;99.90;;;;;;5149945;27;20043;-67
2023/07/12 05:07:54;;;;;;;0.00;0.00;;;18.90;99.90;;;;;;5126410;27;20423;-68
2023/07/12 05:10:20;;;;;;;0.80;0.22;;;18.90;99.90;;;;;;5148592;27;20099;-67
2023/07/12 05:12:45;;;;;;;0.05;0.05;;;18.90;99.90;;;;;;5151128;27;20030;-68
2023/07/12 05:15:11;;;;;;;0.00;0.00;;;18.90;99.90;;;;;;5150077;27;20525;-67
2023/07/12 05:17:38;;;;;;;0.28;0.28;;;19.00;99.90;;;;;;5143468;27;20478;-67
2023/07/12 05:20:07;;;;;;;0.10;0.10;;;19.10;99.90;;;;;;5149725;27;20034;-67
2023/07/12 05:22:33;;;;;;;0.45;0.45;;;19.10;99.90;;;;;;5151796;27;20035;-67
2023/07/12 05:24:59;;;;;;;0.10;0.10;;;19.20;99.90;;;;;;5140415;27;20032;-67
2023/07/12 05:27:26;;;;;;;0.80;0.80;;;19.20;99.90;;;;;;5128206;27;20043;-67
2023/07/12 05:29:52;;;;;;;4.05;1.90;;;19.30;99.90;;;;;;5150170;27;20038;-67
2023/07/12 05:32:18;;;;;;;8.07;0.88;;;19.30;99.90;;;;;;5141752;27;20286;-67
2023/07/12 05:34:43;;;;;;;0.03;0.03;;;19.30;99.90;;;;;;5148323;27;20099;-67
2023/07/12 05:37:11;;;;;;;0.20;0.20;;;19.20;99.90;;;;;;5150492;27;20474;-67
2023/07/12 05:39:36;;;;;;;0.00;0.00;;;19.20;99.90;;;;;;5142237;27;20401;-67
2023/07/12 05:42:02;;;;;;;0.00;0.00;;;19.20;99.90;;;;;;5151399;27;20038;-67
2023/07/12 05:44:28;;;;;;;0.00;0.00;;;19.10;99.90;;;;;;5142409;27;20042;-67
2023/07/12 05:46:53;;;;;;;0.00;0.00;;;19.10;99.90;;;;;;5152193;27;20061;-67
2023/07/12 05:49:19;;;;;;;0.22;0.22;;;19.10;99.90;;;;;;5150131;27;20423;-67
2023/07/12 05:51:46;;;;;;;0.00;0.00;;;19.10;99.90;;;;;;5148450;27;20113;-67
2023/07/12 05:54:12;;;;;;;0.00;0.00;;;19.10;99.90;;;;;;5145182;27;20398;-67
2023/07/12 05:56:38;;;;;;;0.15;0.15;;;19.20;99.90;;;;;;5147305;27;20038;-67
2023/07/12 05:59:04;;;;;;;0.95;0.55;;;19.20;99.90;;;;;;5143444;27;20042;-67
2023/07/12 06:01:30;;;;;;;0.65;0.65;;;19.20;99.90;;;;;;5129288;27;20130;-67
2023/07/12 06:03:56;;;;;;;0.45;0.45;;;19.10;99.90;;;;;;5149096;27;20043;-67
2023/07/12 06:06:21;;;;;;;0.00;0.00;;;19.10;99.90;;;;;;5150765;27;20042;-68
2023/07/12 06:08:47;;;;;;;0.57;0.57;;;18.90;99.90;;;;;;5150948;27;20035;-68
2023/07/12 06:11:13;;;;;;;0.00;0.00;;;18.30;99.90;;;;;;5147699;27;20443;-68
2023/07/12 06:13:39;;;;;;;0.00;0.00;;;18.20;99.90;;;;;;5140962;27;20093;-67
2023/07/12 06:16:05;;;;;;;0.05;0.05;;;18.00;99.90;;;;;;5141856;27;20035;-67
2023/07/12 06:18:31;;;;;;;5.38;1.02;;;18.00;99.90;;;;;;5139309;27;20041;-67
2023/07/12 06:20:59;;;;;;;0.00;0.00;;;18.00;99.90;;;;;;5137849;27;20038;-66
2023/07/12 06:23:25;;;;;;;0.00;0.00;;;18.00;99.90;;;;;;5143715;27;20042;-66
2023/07/12 06:25:51;;;;;;;0.00;0.00;;;18.00;99.90;;;;;;5149134;27;20035;-66
2023/07/12 06:28:17;;;;;;;0.10;0.10;;;18.20;99.90;;;;;;5141429;27;20035;-66
2023/07/12 06:30:42;;;;;;;0.00;0.00;;;18.20;99.90;;;;;;5147202;27;20389;-67
2023/07/12 06:33:10;;;;;;;0.00;0.00;;;18.20;99.90;;;;;;5149520;27;20054;-67
2023/07/12 06:35:35;;;;;;;0.20;0.20;;;18.30;99.90;;;;;;5148498;27;20047;-66
2023/07/12 06:38:01;;;;;;;0.25;0.25;;;18.30;99.90;;;;;;5141751;27;20057;-66
2023/07/12 06:40:26;;;;;;;0.03;0.03;;;18.40;99.90;;;;;;5130786;27;20054;-67
2023/07/12 06:42:52;;;;;;;0.30;0.30;;;18.40;99.90;;;;;;5145697;27;20113;-68
2023/07/12 06:45:17;;;;;;;0.00;0.00;;;18.30;99.90;;;;;;5149997;27;20100;-67
2023/07/12 06:47:44;;;;;;;0.10;0.10;;;18.30;99.90;;;;;;5149073;27;20039;-67
2023/07/12 06:50:10;;;;;;;0.20;0.20;;;18.20;99.90;;;;;;5151757;27;20077;-67
2023/07/12 06:52:35;;;;;;;2.63;0.63;;;18.10;99.90;;;;;;5135567;27;20070;-67
2023/07/12 06:55:01;;;;;;;0.00;0.00;;;18.00;99.90;;;;;;5140872;27;20039;-67
2023/07/12 06:57:26;;;;;;;0.00;0.00;;;17.90;99.90;;;;;;5140380;27;20043;-67
2023/07/12 06:59:52;;;;;;;0.20;0.20;;;17.80;99.90;;;;;;5142723;27;20394;-67
2023/07/12 07:02:18;;;;;;;0.00;0.00;;;17.70;99.90;;;;;;5143069;27;20394;-67
2023/07/12 07:04:44;;;;;;;0.00;0.00;;;17.70;99.90;;;;;;5149655;27;20050;-67
2023/07/12 07:07:09;;;;;;;0.00;0.00;;;17.70;99.90;;;;;;5142509;27;20447;-67
2023/07/12 07:09:38;;;;;;;0.00;0.00;;;17.70;99.90;;;;;;5144089;27;20031;-66
2023/07/12 07:12:07;;;;;;;0.00;0.00;;;17.70;99.90;;;;;;5142804;27;20038;-68
2023/07/12 07:14:33;;;;;;;0.15;0.08;;;17.60;99.90;;;;;;5151347;27;20074;-68
2023/07/12 07:16:59;;;;;;;0.10;0.10;;;17.70;99.90;;;;;;5147769;27;20089;-68
2023/07/12 07:19:24;;;;;;;0.00;0.00;;;17.70;99.90;;;;;;5151893;27;20087;-68
2023/07/12 07:21:50;;;;;;;0.00;0.00;;;17.80;99.90;;;;;;5140031;27;20031;-68
2023/07/12 07:24:17;;;;;;;0.00;0.00;;;18.00;99.90;;;;;;5150014;27;20081;-68
2023/07/12 07:26:43;;;;;;;0.20;0.20;;;18.10;99.90;;;;;;5149039;27;20043;-67
2023/07/12 07:29:09;;;;;;;0.00;0.00;;;18.10;99.90;;;;;;5144529;27;20035;-67
2023/07/12 07:31:35;;;;;;;0.00;0.00;;;18.10;99.90;;;;;;5152024;27;20493;-68
2023/07/12 07:34:00;;;;;;;0.20;0.20;;;18.30;99.90;;;;;;5150671;27;20047;-68
2023/07/12 07:36:26;;;;;;;0.20;0.20;;;18.40;99.90;;;;;;5148134;27;20211;-68
2023/07/12 07:38:52;;;;;;;0.00;0.00;;;18.50;99.90;;;;;;5128085;27;20039;-67
2023/07/12 07:41:18;;;;;;;0.00;0.00;;;18.50;99.90;;;;;;5139538;27;20049;-67
2023/07/12 07:43:46;;;;;;;0.00;0.00;;;18.50;99.90;;;;;;5131803;27;20065;-68
2023/07/12 07:46:14;;;;;;;0.10;0.10;;;18.60;99.90;;;;;;5145378;27;20051;-68
2023/07/12 07:48:39;;;;;;;0.05;0.05;;;18.80;99.90;;;;;;5151145;27;20508;-67
2023/07/12 07:51:08;;;;;;;0.08;0.08;;;18.70;99.90;;;;;;5147733;27;20047;-68
2023/07/12 07:53:33;;;;;;;0.10;0.05;;;18.80;99.90;;;;;;5144902;27;20035;-68
2023/07/12 07:55:59;;;;;;;0.00;0.00;;;18.90;99.90;;;;;;5151007;27;20039;-67
2023/07/12 07:58:25;;;;;;;0.03;0.03;;;19.00;99.90;;;;;;5149496;27;20027;-67
2023/07/12 08:00:52;;;;;;;0.00;0.00;;;19.10;99.90;;;;;;5151744;27;20526;-67
2023/07/12 08:03:18;;;;;;;0.08;0.08;;;19.10;99.90;;;;;;5153199;27;20053;-67
2023/07/12 08:05:45;;;;;;;0.05;0.05;;;19.10;99.90;;;;;;5145517;27;20045;-67
2023/07/12 08:08:11;;;;;;;0.10;0.10;;;19.20;99.90;;;;;;5144318;27;20091;-67
2023/07/12 08:10:36;;;;;;;0.00;0.00;;;19.20;99.90;;;;;;5134020;27;20092;-67
2023/07/12 08:13:03;;;;;;;1.20;0.75;;;19.00;99.90;;;;;;5141669;27;20043;-67
2023/07/12 08:15:28;;;;;;;0.00;0.00;;;19.00;99.90;;;;;;5143075;27;20517;-67
2023/07/12 08:17:54;;;;;;;2.67;1.15;;;18.90;99.90;;;;;;5147106;27;20070;-68
2023/07/12 08:20:21;;;;;;;2.00;0.80;;;19.00;99.90;;;;;;5141076;27;20096;-68
2023/07/12 08:22:47;;;;;;;20.58;0.68;;;19.10;99.90;;;;;;5126946;27;20031;-67
2023/07/12 08:25:14;;;;;;;0.28;0.28;;;19.20;99.90;;;;;;5146403;27;20043;-68
2023/07/12 08:27:39;;;;;;;0.20;0.15;;;19.30;99.90;;;;;;5153563;27;20079;-68
2023/07/12 08:30:05;;;;;;;0.22;0.22;;;19.30;99.90;;;;;;5143784;27;20039;-68
2023/07/12 08:32:33;;;;;;;6.43;2.65;;;19.20;99.90;;;;;;5147277;27;20057;-68
2023/07/12 08:35:00;;;;;;;0.00;0.00;;;19.20;99.90;;;;;;5140787;27;20035;-68
2023/07/12 08:37:26;;;;;;;0.00;0.00;;;19.20;99.90;;;;;;5144764;27;20080;-68
2023/07/12 08:39:52;;;;;;;0.47;0.40;;;19.30;99.90;;;;;;5149922;27;20037;-68
2023/07/12 08:42:23;;;;;;;0.03;0.03;;;19.40;99.90;;;;;;5153281;27;20141;-68
2023/07/12 08:44:49;;;;;;;0.03;0.03;;;19.40;99.90;;;;;;5146613;27;20043;-68
2023/07/12 08:47:22;;;;;;;0.00;0.00;;;19.20;99.90;;;;;;5141582;27;20414;-68
2023/07/12 08:49:48;;;;;;;0.00;0.00;;;19.30;99.90;;;;;;5147253;27;20140;-68
2023/07/12 08:52:22;;;;;;;0.03;0.03;;;19.20;99.90;;;;;;5147481;27;20038;-68
2023/07/12 08:54:48;;;;;;;;;;;19.30;99.90;;;;;;5142702;27;20110;-68
2023/07/12 08:57:14;;;;;;;0.00;0.00;;;19.40;99.90;;;;;;5130469;27;19966;-68
2023/07/12 08:59:41;;;;;;;0.08;0.08;;;19.50;99.90;;;;;;5147708;27;20043;-68
2023/07/12 09:02:21;;;;;;;1.65;1.55;;;19.60;99.90;;;;;;5144423;27;20040;-68
2023/07/12 09:04:47;;;;;;;0.00;0.00;;;19.80;99.90;;;;;;5149847;27;20043;-69
2023/07/12 09:07:21;;;;;;;0.00;0.00;;;19.90;99.90;;;;;;5147654;27;20042;-67
2023/07/12 09:09:48;;;;;;;0.98;0.90;;;20.00;99.90;;;;;;5147740;27;20038;-68
2023/07/12 09:12:23;;;;;;;0.00;0.00;;;20.00;99.90;;;;;;5145766;27;20047;-68
2023/07/12 09:14:53;;;;;;;0.47;0.47;;;19.90;99.90;;;;;;5149098;27;20126;-68
2023/07/12 09:17:24;;;;;;;0.15;0.10;;;19.80;99.90;;;;;;5139806;27;20099;-68
2023/07/12 09:19:50;;;;;;;0.00;0.00;;;19.90;99.90;;;;;;5147427;27;20113;-68
2023/07/12 09:22:17;;;;;;;0.20;0.20;;;19.90;99.90;;;;;;5141818;27;20619;-68
2023/07/12 09:24:56;;;;;;;0.00;0.00;;;19.90;99.90;;;;;;5150092;27;20034;-68
2023/07/12 09:27:24;;;;;;;0.03;0.03;;;19.80;99.90;;;;;;5143269;27;20931;-68
2023/07/12 09:29:59;;;;;;;0.00;0.00;;;19.80;99.90;;;;;;5143968;27;20089;-68
2023/07/12 09:32:34;;;;;;;0.00;0.00;;;19.90;99.90;;;;;;5145294;27;20481;-68
2023/07/12 09:35:02;;;;;;;0.35;0.35;;;20.10;99.90;;;;;;5144288;27;20043;-68
2023/07/12 09:37:36;;;;;;;0.35;0.35;;;19.90;99.90;;;;;;5142130;27;20486;-68
2023/07/12 09:40:03;;;;;;;0.43;0.43;;;20.00;99.90;;;;;;5144449;27;20035;-68
2023/07/12 09:42:31;;;;;;;0.00;0.00;;;20.00;99.90;;;;;;5143201;27;20096;-68
2023/07/12 09:44:58;;;;;;;0.15;0.15;;;20.10;99.90;;;;;;5150022;27;20035;-68
2023/07/12 09:47:42;;;;;;;0.00;0.00;;;20.10;99.90;;;;;;5123939;27;20490;-68
2023/07/12 09:50:20;;;;;;;0.20;0.20;;;20.10;99.90;;;;;;5149765;27;20054;-68
2023/07/12 09:53:18;;;;;;;1.45;0.60;;;20.40;99.90;;;;;;5145245;27;20479;-69
2023/07/12 09:55:54;;;;;;;0.00;0.00;;;20.90;99.90;;;;;;5146897;27;20050;-68
2023/07/12 09:58:45;;;;;;;0.00;0.00;;;20.80;99.90;;;;;;5125683;27;20563;-69
2023/07/12 10:01:36;;;;;;;0.10;0.10;;;21.10;99.90;;;;;;5142118;27;20061;-68
2023/07/12 10:04:28;;;;;;;0.00;0.00;;;21.50;99.90;;;;;;5144636;27;20530;-68
2023/07/12 10:06:55;;;;;;;0.05;0.05;;;21.70;99.90;;;;;;5096249;27;20107;-68
2023/07/12 10:09:36;;;;;;;3.20;1.00;;;21.80;99.90;;;;;;5151189;27;20490;-69
2023/07/12 10:12:24;;;;;;;0.00;0.00;;;21.70;99.90;;;;;;5142910;27;20074;-67
2023/07/12 10:14:52;;;;;;;0.80;0.80;;;21.60;99.90;;;;;;5148383;27;20066;-68
2023/07/12 10:17:29;;;;;;;0.00;0.00;;;21.30;99.90;;;;;;5143524;27;20047;-68
2023/07/12 10:19:56;;;;;;;0.10;0.10;;;21.30;99.90;;;;;;5138584;27;20123;-68
2023/07/12 10:22:35;;;;;;;0.20;0.20;;;21.60;99.90;;;;;;5137380;27;20053;-68
2023/07/12 10:25:05;;;;;;;0.22;0.22;;;21.50;99.90;;;;;;5147309;27;20038;-68
2023/07/12 10:27:37;;;;;;;0.03;0.03;;;21.50;99.90;;;;;;5140586;27;20382;-68
2023/07/12 10:30:07;;;;;;;0.00;0.00;;;21.50;99.90;;;;;;5151346;27;20066;-68
2023/07/12 10:33:00;;;;;;;0.00;0.00;;;21.80;99.90;;;;;;5130968;27;20131;-68
2023/07/12 10:35:38;;;;;;;0.10;0.10;;;21.80;99.90;;;;;;5139642;27;20055;-67
2023/07/12 10:38:10;;;;;;;0.00;0.00;;;21.80;99.90;;;;;;5137884;27;20031;-68
2023/07/12 10:40:49;;;;;;;0.00;0.00;;;22.00;99.90;;;;;;5141893;27;20050;-68
2023/07/12 10:43:37;;;;;;;0.00;0.00;;;21.90;99.90;;;;;;5141134;27;20038;-68
2023/07/12 10:46:30;;;;;;;0.30;0.28;;;21.50;99.90;;;;;;5135970;27;20077;-68
2023/07/12 10:48:57;;;;;;;0.47;0.38;;;21.30;99.90;;;;;;5120600;27;20055;-68
2023/07/12 10:51:40;;;;;;;0.00;0.00;;;21.60;99.90;;;;;;5143738;27;20039;-68
2023/07/12 10:54:26;;;;;;;;;;;21.50;99.90;;;;;;5136988;27;20035;-68
2023/07/12 10:56:54;;;;;;;0.00;0.00;;;21.80;99.90;;;;;;5136280;27;19927;-68
2023/07/12 10:59:30;;;;;;;0.38;0.38;;;22.00;99.90;;;;;;5139619;27;20046;-69
2023/07/12 11:02:08;;;;;;;0.00;0.00;;;21.90;99.90;;;;;;5126448;27;20078;-69
2023/07/12 11:04:44;;;;;;;0.20;0.20;;;22.10;99.90;;;;;;5135860;27;20050;-69
2023/07/12 11:07:15;;;;;;;0.10;0.10;;;22.20;99.90;;;;;;5143966;27;20047;-69
2023/07/12 11:09:49;;;;;;;0.10;0.10;;;22.30;99.90;;;;;;5144203;27;20035;-69
2023/07/12 11:12:18;;;;;;;0.65;0.10;;;22.40;99.90;;;;;;5131883;27;20406;-69
2023/07/12 11:14:50;;;;;;;14.07;0.40;;;22.10;99.90;;;;;;5144902;27;20079;-69
2023/07/12 11:17:55;;;;;;;0.30;0.20;;;22.10;99.90;;;;;;5136261;27;20134;-68
2023/07/12 11:20:26;;;;;;;0.35;0.30;;;22.20;99.90;;;;;;5101289;27;20067;-68
2023/07/12 11:22:59;;;;;;;0.00;0.00;;;22.30;99.90;;;;;;5120434;27;20093;-68
2023/07/12 11:25:29;;;;;;;0.10;0.10;;;22.40;99.90;;;;;;5152966;27;20042;-68
2023/07/12 11:28:04;;;;;;;0.00;0.00;;;22.60;99.90;;;;;;5126494;27;20436;-68
2023/07/12 11:30:35;;;;;;;0.30;0.30;;;22.70;99.90;;;;;;5150738;27;20043;-68
2023/07/12 11:33:10;;;;;;;0.93;0.57;;;22.70;99.90;;;;;;5151419;27;20051;-69
2023/07/12 11:35:51;;;;;;;0.03;0.03;;;22.80;99.90;;;;;;5143068;27;20051;-68
2023/07/12 11:38:33;;;;;;;0.00;0.00;;;22.90;99.90;;;;;;5143887;27;20490;-68
2023/07/12 11:41:20;;;;;;;0.10;0.10;;;22.90;99.90;;;;;;5132264;27;20053;-69
2023/07/12 11:43:46;;;;;;;0.00;0.00;;;22.90;99.90;;;;;;5124813;27;20371;-68
2023/07/12 11:46:24;;;;;;;0.10;0.10;;;23.00;99.90;;;;;;5134740;27;20050;-68
2023/07/12 11:49:21;;;;;;;0.63;0.20;;;23.00;99.90;;;;;;5146198;27;20050;-68
2023/07/12 11:51:52;;;;;;;0.00;0.00;;;23.40;99.90;;;;;;5123350;27;20055;-69
2023/07/12 11:54:25;;;;;;;0.00;0.00;;;23.30;99.90;;;;;;5149440;27;20050;-68
2023/07/12 11:56:52;;;;;;;0.00;0.00;;;23.30;99.90;;;;;;5149030;27;20059;-68
2023/07/12 11:59:23;;;;;;;0.00;0.00;;;23.30;99.90;;;;;;5141452;27;20043;-68
2023/07/12 12:01:51;;;;;;;2.53;0.75;;;23.40;99.90;;;;;;5146229;27;20131;-69
2023/07/12 12:04:30;;;;;;;0.50;0.50;;;23.40;99.90;;;;;;5128849;27;20069;-69
2023/07/12 12:07:05;;;;;;;0.00;0.00;;;23.60;99.90;;;;;;5152180;27;20859;-69
2023/07/12 12:09:35;;;;;;;0.00;0.00;;;23.70;99.90;;;;;;5152682;27;20046;-68
2023/07/12 12:12:02;;;;;;;0.00;0.00;;;23.60;99.90;;;;;;5148617;27;20049;-69
2023/07/12 12:14:31;;;;;;;0.00;0.00;;;23.80;99.90;;;;;;5143331;27;20119;-68
2023/07/12 12:17:05;;;;;;;0.10;0.10;;;24.00;99.90;;;;;;5145426;27;20035;-68
2023/07/12 12:19:31;;;;;;;0.00;0.00;;;24.10;99.90;;;;;;5153968;27;20106;-68
2023/07/12 12:22:04;;;;;;;7.72;0.25;;;24.30;99.90;;;;;;5142937;27;20384;-69
2023/07/12 12:24:41;;;;;;;2.80;1.30;;;24.50;99.90;;;;;;5124312;27;20046;-68
2023/07/12 12:27:35;;;;;;;0.03;0.03;;;24.40;99.90;;;;;;5152495;27;20284;-68
2023/07/12 12:30:32;;;;;;;0.00;0.00;;;24.70;99.90;;;;;;5115285;27;20058;-68
2023/07/12 12:33:27;;;;;;;5.05;0.35;;;24.50;99.90;;;;;;5141656;27;20057;-69
2023/07/12 12:36:04;;;;;;;0.00;0.00;;;24.50;99.90;;;;;;5141406;27;20087;-69
2023/07/12 12:38:36;;;;;;;0.00;0.00;;;24.60;99.90;;;;;;5149098;27;20069;-68
2023/07/12 12:41:16;;;;;;;0.30;0.17;;;25.00;99.90;;;;;;5149830;27;20533;-68
2023/07/12 12:43:59;;;;;;;0.00;0.00;;;24.80;99.90;;;;;;5118588;27;20130;-68
2023/07/12 12:46:24;;;;;;;0.30;0.30;;;24.50;99.90;;;;;;5149875;27;20117;-68
2023/07/12 12:48:54;;;;;;;0.00;0.00;;;24.60;99.90;;;;;;5150017;27;20138;-69
2023/07/12 12:51:23;;;;;;;0.00;0.00;;;24.90;99.90;;;;;;5141338;27;20122;-68
2023/07/12 12:53:49;;;;;;;0.00;0.00;;;24.90;99.90;;;;;;5145245;27;20043;-68
2023/07/12 12:56:15;;;;;;;0.00;0.00;;;25.40;99.90;;;;;;5144815;27;20050;-68
2023/07/12 12:58:42;;;;;;;0.00;0.00;;;25.20;99.90;;;;;;5148594;27;20046;-68